createdAt,value
2018-09-12T00:00:40.278Z,5.03
2018-09-12T00:03:09.168Z,5.03
2018-09-12T00:05:38.237Z,5.23
2018-09-12T00:08:07.092Z,5.03
2018-09-12T00:10:35.940Z,5.10
2018-09-12T00:13:04.892Z,5.37
2018-09-12T00:15:33.648Z,4.50
2018-09-12T00:18:02.534Z,5.30
2018-09-12T00:20:31.432Z,5.17
2018-09-12T00:23:00.300Z,5.70
2018-09-12T00:25:29.243Z,5.03
2018-09-12T00:27:58.139Z,4.93
2018-09-12T00:30:27.453Z,4.77
2018-09-12T00:32:56.372Z,5.00
2018-09-12T00:35:25.234Z,4.77
2018-09-12T00:37:54.167Z,4.50
2018-09-12T00:40:22.988Z,5.00
2018-09-12T00:42:51.913Z,5.20
2018-09-12T00:45:21.019Z,5.00
2018-09-12T00:47:49.960Z,5.27
2018-09-12T00:50:18.718Z,5.30
2018-09-12T00:52:47.901Z,5.30
2018-09-12T00:55:16.764Z,5.10
2018-09-12T00:57:45.728Z,5.17
2018-09-12T01:00:15.102Z,5.30
2018-09-12T01:02:44.103Z,5.20
2018-09-12T01:05:13.132Z,5.27
2018-09-12T01:07:42.273Z,4.80
2018-09-12T01:10:11.115Z,5.47
2018-09-12T01:12:40.188Z,4.90
2018-09-12T01:15:09.172Z,4.90
2018-09-12T01:17:38.076Z,5.17
2018-09-12T01:20:07.004Z,5.03
2018-09-12T01:22:35.982Z,5.47
2018-09-12T01:25:04.874Z,5.43
2018-09-12T01:27:33.829Z,4.90
2018-09-12T01:30:03.243Z,5.07
2018-09-12T01:32:32.176Z,5.10
2018-09-12T01:35:01.055Z,4.73
2018-09-12T01:37:29.977Z,5.30
2018-09-12T01:39:59.045Z,5.33
2018-09-12T01:42:27.869Z,5.57
2018-09-12T01:44:56.811Z,5.30
2018-09-12T01:47:25.597Z,5.53
2018-09-12T01:49:54.511Z,5.50
2018-09-12T01:52:23.714Z,5.17
2018-09-12T01:54:52.833Z,5.20
2018-09-12T01:57:21.897Z,5.57
2018-09-12T01:59:51.007Z,5.37
2018-09-12T02:02:20.078Z,5.57
2018-09-12T02:04:49.118Z,5.13
2018-09-12T02:07:18.090Z,5.27
2018-09-12T02:09:47.089Z,5.33
2018-09-12T02:12:15.930Z,5.73
2018-09-12T02:14:44.959Z,5.40
2018-09-12T02:17:13.893Z,5.60
2018-09-12T02:19:43.061Z,5.47
2018-09-12T02:22:12.554Z,5.93
2018-09-12T02:24:41.509Z,5.30
2018-09-12T02:27:10.469Z,5.40
2018-09-12T02:29:39.495Z,5.57
2018-09-12T02:32:08.648Z,5.63
2018-09-12T02:34:37.697Z,6.00
2018-09-12T02:37:06.857Z,5.40
2018-09-12T02:39:35.832Z,5.67
2018-09-12T02:42:04.634Z,5.40
2018-09-12T02:44:33.804Z,5.70
2018-09-12T02:47:02.808Z,5.33
2018-09-12T02:49:31.732Z,6.17
2018-09-12T02:52:00.681Z,6.57
2018-09-12T02:54:29.474Z,6.17
2018-09-12T02:56:58.444Z,5.70
2018-09-12T02:59:27.515Z,6.10
2018-09-12T03:01:56.394Z,5.83
2018-09-12T03:04:41.469Z,5.80
2018-09-12T03:07:10.695Z,5.83
2018-09-12T03:09:39.608Z,5.80
2018-09-12T03:12:08.517Z,6.13
2018-09-12T03:14:37.490Z,5.83
2018-09-12T03:17:06.562Z,6.03
2018-09-12T03:19:35.463Z,6.43
2018-09-12T03:22:04.647Z,6.37
2018-09-12T03:24:33.856Z,6.63
2018-09-12T03:27:03.349Z,6.00
2018-09-12T03:29:32.301Z,7.23
2018-09-12T03:32:01.557Z,6.33
2018-09-12T03:34:31.220Z,5.83
2018-09-12T03:37:00.101Z,6.73
2018-09-12T03:39:29.109Z,6.73
2018-09-12T03:41:58.295Z,6.43
2018-09-12T03:44:27.189Z,7.07
2018-09-12T03:46:56.026Z,7.33
2018-09-12T03:49:24.968Z,7.87
2018-09-12T03:51:53.852Z,7.27
2018-09-12T03:54:22.667Z,6.23
2018-09-12T03:56:51.852Z,6.60
2018-09-12T03:59:20.712Z,5.83
2018-09-12T04:01:49.593Z,6.37
2018-09-12T04:04:18.709Z,6.20
2018-09-12T04:06:47.564Z,6.37
2018-09-12T04:09:16.527Z,6.50
2018-09-12T04:11:45.963Z,6.10
2018-09-12T04:14:15.122Z,6.60
2018-09-12T04:16:44.196Z,7.60
2018-09-12T04:19:13.421Z,6.17
2018-09-12T04:21:42.329Z,7.73
2018-09-12T04:24:11.216Z,6.50
2018-09-12T04:26:40.365Z,6.63
2018-09-12T04:29:09.375Z,6.60
2018-09-12T04:31:38.575Z,6.80
2018-09-12T04:34:07.510Z,7.40
2018-09-12T04:36:36.499Z,7.60
2018-09-12T04:39:08.582Z,7.20
2018-09-12T04:41:37.567Z,7.17
2018-09-12T04:44:06.507Z,7.07
2018-09-12T04:46:35.965Z,6.73
2018-09-12T04:49:05.406Z,7.00
2018-09-12T04:51:34.287Z,6.53
2018-09-12T04:54:03.223Z,8.30
2018-09-12T04:56:32.097Z,7.90
2018-09-12T04:59:00.915Z,8.67
2018-09-12T05:01:29.889Z,7.43
2018-09-12T05:03:58.801Z,7.03
2018-09-12T05:06:28.144Z,6.93
2018-09-12T05:08:57.189Z,6.63
2018-09-12T05:11:26.224Z,6.93
2018-09-12T05:13:55.731Z,7.00
2018-09-12T05:16:24.591Z,7.40
2018-09-12T05:18:53.446Z,6.47
2018-09-12T05:21:22.621Z,7.20
2018-09-12T05:23:51.530Z,7.07
2018-09-12T05:26:20.675Z,7.43
2018-09-12T05:28:50.992Z,7.33
2018-09-12T05:31:20.084Z,6.40
2018-09-12T05:33:49.167Z,6.97
2018-09-12T05:36:18.297Z,6.60
2018-09-12T05:38:47.273Z,7.57
2018-09-12T05:41:16.274Z,7.17
2018-09-12T05:43:45.384Z,7.07
2018-09-12T05:46:14.335Z,7.37
2018-09-12T05:48:43.357Z,6.70
2018-09-12T05:51:12.684Z,6.67
2018-09-12T05:53:41.685Z,5.90
2018-09-12T05:56:11.545Z,6.50
2018-09-12T05:58:40.653Z,6.43
2018-09-12T06:01:09.489Z,6.20
2018-09-12T06:03:38.457Z,5.73
2018-09-12T06:06:07.725Z,6.27
2018-09-12T06:08:36.683Z,5.20
2018-09-12T06:11:05.900Z,5.43
2018-09-12T06:13:35.124Z,6.13
2018-09-12T06:16:04.093Z,6.40
2018-09-12T06:18:33.232Z,5.47
2018-09-12T06:21:02.556Z,5.60
2018-09-12T06:23:31.581Z,5.90
2018-09-12T06:26:00.583Z,5.73
2018-09-12T06:28:29.985Z,5.77
2018-09-12T06:30:59.369Z,5.47
2018-09-12T06:33:28.640Z,5.53
2018-09-12T06:35:57.991Z,6.23
2018-09-12T06:38:29.777Z,5.90
2018-09-12T06:40:59.053Z,6.10
2018-09-12T06:43:28.258Z,5.63
2018-09-12T06:45:57.505Z,6.03
2018-09-12T06:48:26.682Z,6.97
2018-09-12T06:50:55.926Z,6.17
2018-09-12T06:53:25.252Z,6.40
2018-09-12T06:55:54.726Z,6.30
2018-09-12T06:58:24.061Z,5.80
2018-09-12T07:00:53.394Z,6.03
2018-09-12T07:03:23.195Z,7.17
2018-09-12T07:05:53.418Z,6.50
2018-09-12T07:08:22.960Z,6.40
2018-09-12T07:10:53.446Z,6.20
2018-09-12T07:13:22.744Z,6.10
2018-09-12T07:15:52.129Z,5.97
2018-09-12T07:18:21.306Z,5.73
2018-09-12T07:20:50.948Z,5.77
2018-09-12T07:23:21.342Z,6.00
2018-09-12T07:25:50.994Z,5.50
2018-09-12T07:28:20.127Z,5.50
2018-09-12T07:30:49.737Z,6.63
2018-09-12T07:33:18.963Z,5.67
2018-09-12T07:35:48.268Z,6.13
2018-09-12T07:38:17.533Z,5.87
2018-09-12T07:40:47.117Z,6.40
2018-09-12T07:43:16.878Z,5.53
2018-09-12T07:45:46.074Z,5.53
2018-09-12T07:48:16.239Z,5.80
2018-09-12T07:50:48.894Z,5.40
2018-09-12T07:53:18.832Z,5.73
2018-09-12T07:55:48.347Z,5.95
2018-09-12T07:58:17.751Z,7.43
2018-09-12T08:00:47.353Z,8.25
2018-09-12T08:03:16.901Z,6.53
2018-09-12T08:05:46.365Z,6.42
2018-09-12T08:08:16.363Z,6.80
2018-09-12T08:10:45.583Z,6.10
2018-09-12T08:13:15.991Z,5.78
2018-09-12T08:15:45.504Z,7.25
2018-09-12T08:18:14.876Z,6.37
2018-09-12T08:20:44.558Z,7.30
2018-09-12T08:23:14.015Z,6.72
2018-09-12T08:25:43.236Z,6.85
2018-09-12T08:28:13.997Z,6.17
2018-09-12T08:30:43.230Z,5.75
2018-09-12T08:33:12.584Z,6.47
2018-09-12T08:35:42.119Z,5.05
2018-09-12T08:38:11.598Z,5.78
2018-09-12T08:40:40.916Z,5.33
2018-09-12T08:43:11.193Z,5.15
2018-09-12T08:45:40.417Z,5.72
2018-09-12T08:48:09.579Z,4.95
2018-09-12T08:50:39.148Z,5.35
2018-09-12T08:53:08.630Z,5.60
2018-09-12T08:55:37.908Z,5.03
2018-09-12T08:58:07.890Z,4.95
2018-09-12T09:00:37.084Z,5.37
2018-09-12T09:03:07.408Z,4.92
2018-09-12T09:05:36.945Z,4.85
2018-09-12T09:08:06.194Z,5.40
2018-09-12T09:10:35.561Z,5.10
2018-09-12T09:13:05.064Z,5.47
2018-09-12T09:15:34.261Z,4.85
2018-09-12T09:18:03.586Z,5.20
2018-09-12T09:20:33.134Z,5.12
2018-09-12T09:23:02.559Z,5.30
2018-09-12T09:25:31.810Z,7.58
2018-09-12T09:28:01.192Z,5.20
2018-09-12T09:30:33.060Z,5.85
2018-09-12T09:33:03.141Z,5.92
2018-09-12T09:35:32.510Z,4.92
2018-09-12T09:38:01.691Z,5.08
2018-09-12T09:40:32.004Z,4.60
2018-09-12T09:43:01.293Z,4.97
2018-09-12T09:45:30.590Z,4.35
2018-09-12T09:47:59.886Z,4.83
2018-09-12T09:50:29.964Z,4.30
2018-09-12T09:52:59.292Z,5.10
2018-09-12T09:55:28.551Z,4.80
2018-09-12T09:57:57.864Z,5.15
2018-09-12T10:00:32.089Z,5.00
2018-09-12T10:03:10.222Z,5.40
2018-09-12T10:05:45.150Z,5.05
2018-09-12T10:08:19.158Z,4.80
2018-09-12T10:10:48.641Z,4.30
2018-09-12T10:13:17.872Z,4.75
2018-09-12T10:15:47.081Z,5.00
2018-09-12T10:18:16.727Z,4.72
2018-09-12T10:20:46.096Z,4.62
2018-09-12T10:23:15.390Z,4.58
2018-09-12T10:25:44.952Z,5.03
2018-09-12T10:28:14.201Z,4.67
2018-09-12T10:30:44.093Z,5.37
2018-09-12T10:33:13.889Z,4.12
2018-09-12T10:35:43.151Z,4.47
2018-09-12T10:38:12.416Z,4.85
2018-09-12T10:40:42.004Z,4.90
2018-09-12T10:43:11.253Z,4.60
2018-09-12T10:45:40.550Z,4.62
2018-09-12T10:48:09.833Z,4.67
2018-09-12T10:50:39.135Z,4.60
2018-09-12T10:53:08.368Z,5.47
2018-09-12T10:55:37.727Z,5.78
2018-09-12T10:58:07.001Z,4.17
2018-09-12T11:00:36.342Z,5.15
2018-09-12T11:03:05.649Z,4.17
2018-09-12T11:05:34.861Z,4.22
2018-09-12T11:08:04.220Z,4.30
2018-09-12T11:10:33.857Z,4.47
2018-09-12T11:13:03.009Z,4.47
2018-09-12T11:15:32.288Z,4.75
2018-09-12T11:18:01.791Z,5.10
2018-09-12T11:20:32.225Z,4.62
2018-09-12T11:23:01.649Z,4.72
2018-09-12T11:25:30.946Z,4.30
2018-09-12T11:28:00.218Z,5.08
2018-09-12T11:30:29.643Z,4.75
2018-09-12T11:32:58.776Z,5.22
2018-09-12T11:35:28.211Z,6.17
2018-09-12T11:37:58.884Z,4.92
2018-09-12T11:40:28.710Z,5.08
2018-09-12T11:43:00.137Z,5.58
2018-09-12T11:45:29.442Z,5.72
2018-09-12T11:47:59.330Z,5.78
2018-09-12T11:50:29.633Z,5.95
2018-09-12T11:52:58.942Z,6.45
2018-09-12T11:55:28.367Z,6.00
2018-09-12T11:57:57.832Z,5.78
2018-09-12T12:00:27.040Z,5.83
2018-09-12T12:02:56.268Z,6.85
2018-09-12T12:05:25.746Z,7.03
2018-09-12T12:07:55.176Z,7.55
2018-09-12T12:10:24.490Z,6.83
2018-09-12T12:12:54.003Z,7.45
2018-09-12T12:15:23.805Z,7.65
2018-09-12T12:17:53.125Z,7.77
2018-09-12T12:20:22.860Z,7.10
2018-09-12T12:22:52.190Z,7.05
2018-09-12T12:25:21.677Z,6.37
2018-09-12T12:27:51.208Z,6.42
2018-09-12T12:30:21.449Z,7.05
2018-09-12T12:32:50.878Z,6.72
2018-09-12T12:35:21.297Z,7.03
2018-09-12T12:37:51.036Z,6.10
2018-09-12T12:40:21.380Z,7.45
2018-09-12T12:42:51.470Z,7.08
2018-09-12T12:45:20.955Z,6.97
2018-09-12T12:47:50.257Z,6.90
2018-09-12T12:50:19.552Z,7.12
2018-09-12T12:52:48.829Z,6.00
2018-09-12T12:55:18.093Z,6.37
2018-09-12T12:57:48.104Z,10.75
2018-09-12T13:00:17.762Z,7.92
2018-09-12T13:02:47.096Z,7.08
2018-09-12T13:05:16.690Z,6.90
2018-09-12T13:07:45.891Z,7.20
2018-09-12T13:10:15.157Z,6.50
2018-09-12T13:12:44.857Z,6.72
2018-09-12T13:15:14.269Z,6.65
2018-09-12T13:17:43.402Z,6.33
2018-09-12T13:20:13.193Z,6.60
2018-09-12T13:22:42.465Z,6.17
2018-09-12T13:25:12.880Z,6.95
2018-09-12T13:27:42.093Z,7.30
2018-09-12T13:30:11.870Z,6.20
2018-09-12T13:32:41.196Z,6.10
2018-09-12T13:35:10.568Z,6.78
2018-09-12T13:37:39.893Z,7.05
2018-09-12T13:40:09.279Z,8.10
2018-09-12T13:42:38.570Z,6.60
2018-09-12T13:45:07.772Z,7.05
2018-09-12T13:47:37.468Z,6.87
2018-09-12T13:50:06.917Z,6.95
2018-09-12T13:52:36.257Z,6.20
2018-09-12T13:55:05.919Z,6.30
2018-09-12T13:57:35.179Z,6.28
2018-09-12T14:00:04.323Z,6.00
2018-09-12T14:02:34.068Z,6.25
2018-09-12T14:05:03.629Z,6.50
2018-09-12T14:07:33.141Z,7.17
2018-09-12T14:10:02.390Z,6.47
2018-09-12T14:12:31.620Z,5.43
2018-09-12T14:15:00.845Z,5.67
2018-09-12T14:17:30.570Z,6.20
2018-09-12T14:19:59.770Z,6.15
2018-09-12T14:22:28.946Z,5.70
2018-09-12T14:24:58.410Z,5.87
2018-09-12T14:27:27.431Z,6.53
2018-09-12T14:29:56.673Z,6.85
2018-09-12T14:32:26.361Z,5.62
2018-09-12T14:34:55.762Z,5.97
2018-09-12T14:37:25.012Z,5.50
2018-09-12T14:39:54.356Z,5.97
2018-09-12T14:42:23.393Z,6.80
2018-09-12T14:44:52.631Z,7.12
2018-09-12T14:47:21.864Z,6.75
2018-09-12T14:49:51.801Z,6.47
2018-09-12T14:52:21.007Z,6.63
2018-09-12T14:54:52.287Z,6.42
2018-09-12T14:57:21.074Z,6.28
2018-09-12T14:59:50.182Z,6.70
2018-09-12T15:02:19.157Z,5.47
2018-09-12T15:04:48.181Z,6.47
2018-09-12T15:07:17.240Z,6.10
2018-09-12T15:09:47.405Z,6.42
2018-09-12T15:12:16.450Z,6.95
2018-09-12T15:14:45.554Z,6.45
2018-09-12T15:17:14.795Z,6.43
2018-09-12T15:19:43.956Z,5.90
2018-09-12T15:22:12.878Z,6.33
2018-09-12T15:24:42.939Z,6.27
2018-09-12T15:27:12.102Z,6.20
2018-09-12T15:29:41.134Z,6.92
2018-09-12T15:32:10.560Z,6.57
2018-09-12T15:34:39.789Z,6.70
2018-09-12T15:37:08.992Z,6.53
2018-09-12T15:39:38.476Z,6.50
2018-09-12T15:42:07.675Z,6.33
2018-09-12T15:44:36.809Z,6.47
2018-09-12T15:47:06.869Z,7.20
2018-09-12T15:49:35.924Z,7.27
2018-09-12T15:52:05.072Z,7.10
2018-09-12T15:54:34.445Z,7.27
2018-09-12T15:57:03.726Z,7.07
2018-09-12T15:59:33.285Z,7.10
2018-09-12T16:02:02.728Z,7.67
2018-09-12T16:04:31.814Z,9.77
2018-09-12T16:07:00.901Z,10.10
2018-09-12T16:09:31.424Z,7.20
2018-09-12T16:12:03.008Z,7.70
2018-09-12T16:14:32.603Z,7.00
2018-09-12T16:17:02.278Z,6.90
2018-09-12T16:19:33.521Z,6.87
2018-09-12T16:22:02.506Z,7.07
2018-09-12T16:24:31.645Z,7.33
2018-09-12T16:27:01.228Z,7.50
2018-09-12T16:29:30.211Z,7.03
2018-09-12T16:31:59.425Z,6.90
2018-09-12T16:34:32.865Z,7.67
2018-09-12T16:37:01.917Z,7.80
2018-09-12T16:39:31.130Z,7.70
2018-09-12T16:42:00.230Z,7.17
2018-09-12T16:44:29.302Z,7.67
2018-09-12T16:46:58.557Z,7.60
2018-09-12T16:49:27.946Z,7.90
2018-09-12T16:51:58.106Z,7.77
2018-09-12T16:54:27.262Z,8.20
2018-09-12T16:56:56.517Z,9.57
2018-09-12T16:59:25.585Z,9.27
2018-09-12T17:01:54.977Z,8.13
2018-09-12T17:04:24.490Z,8.60
2018-09-12T17:06:53.619Z,7.70
2018-09-12T17:09:22.902Z,10.00
2018-09-12T17:11:51.952Z,8.50
2018-09-12T17:14:21.184Z,8.50
2018-09-12T17:16:50.175Z,8.67
2018-09-12T17:19:19.385Z,7.90
2018-09-12T17:21:48.342Z,7.57
2018-09-12T17:24:18.336Z,7.93
2018-09-12T17:26:47.488Z,7.40
2018-09-12T17:29:16.509Z,7.70
2018-09-12T17:31:46.054Z,8.87
2018-09-12T17:34:20.121Z,7.73
2018-09-12T17:36:49.308Z,8.50
2018-09-12T17:39:19.908Z,9.97
2018-09-12T17:41:49.888Z,8.53
2018-09-12T17:44:19.499Z,8.10
2018-09-12T17:46:48.579Z,7.67
2018-09-12T17:49:17.739Z,7.27
2018-09-12T17:51:46.772Z,7.43
2018-09-12T17:54:16.077Z,7.60
2018-09-12T17:56:45.413Z,8.23
2018-09-12T17:59:14.520Z,8.43
2018-09-12T18:01:43.822Z,7.87
2018-09-12T18:04:13.490Z,7.60
2018-09-12T18:06:42.836Z,7.83
2018-09-12T18:09:11.880Z,9.03
2018-09-12T18:11:42.036Z,9.13
2018-09-12T18:14:11.059Z,10.20
2018-09-12T18:16:40.215Z,7.70
2018-09-12T18:19:09.599Z,8.13
2018-09-12T18:21:38.797Z,8.30
2018-09-12T18:24:08.387Z,9.03
2018-09-12T18:26:37.668Z,8.80
2018-09-12T18:29:07.065Z,9.03
2018-09-12T18:31:36.067Z,8.10
2018-09-12T18:34:05.626Z,8.30
2018-09-12T18:36:34.801Z,7.70
2018-09-12T18:39:04.558Z,8.33
2018-09-12T18:41:34.782Z,7.87
2018-09-12T18:44:05.732Z,7.30
2018-09-12T18:46:36.490Z,8.30
2018-09-12T18:49:06.372Z,8.90
2018-09-12T18:51:36.517Z,7.27
2018-09-12T18:54:05.970Z,8.03
2018-09-12T18:56:35.184Z,8.60
2018-09-12T18:59:04.383Z,8.00
2018-09-12T19:01:33.758Z,7.43
2018-09-12T19:04:03.222Z,7.57
2018-09-12T19:06:32.522Z,7.53
2018-09-12T19:09:01.543Z,8.17
2018-09-12T19:11:30.676Z,7.87
2018-09-12T19:13:59.777Z,7.90
2018-09-12T19:16:29.200Z,8.70
2018-09-12T19:19:00.093Z,8.83
2018-09-12T19:21:29.622Z,7.93
2018-09-12T19:24:00.053Z,8.40
2018-09-12T19:26:29.433Z,8.20
2018-09-12T19:28:59.036Z,7.70
2018-09-12T19:31:28.830Z,7.97
2018-09-12T19:33:59.193Z,7.90
2018-09-12T19:36:31.051Z,7.73
2018-09-12T19:39:01.141Z,8.83
2018-09-12T19:41:32.324Z,8.17
2018-09-12T19:44:01.348Z,9.07
2018-09-12T19:46:30.602Z,8.83
2018-09-12T19:49:00.911Z,9.83
2018-09-12T19:51:30.148Z,8.70
2018-09-12T19:53:59.487Z,9.47
2018-09-12T19:56:29.653Z,9.23
2018-09-12T19:58:58.813Z,9.40
2018-09-12T20:01:27.932Z,9.67
2018-09-12T20:03:57.710Z,9.60
2018-09-12T20:06:27.012Z,10.50
2018-09-12T20:08:56.161Z,9.37
2018-09-12T20:11:27.271Z,10.13
2018-09-12T20:13:57.849Z,9.77
2018-09-12T20:16:27.225Z,9.63
2018-09-12T20:18:56.691Z,10.33
2018-09-12T20:21:27.935Z,9.70
2018-09-12T20:23:57.307Z,20.63
2018-09-12T20:26:26.528Z,10.40
2018-09-12T20:28:56.161Z,9.93
2018-09-12T20:31:27.672Z,10.30
2018-09-12T20:33:58.120Z,10.20
2018-09-12T20:36:29.317Z,9.77
2018-09-12T20:39:00.168Z,14.47
2018-09-12T20:41:30.126Z,10.53
2018-09-12T20:43:59.174Z,9.87
2018-09-12T20:46:28.689Z,10.37
2018-09-12T20:48:58.257Z,10.17
2018-09-12T20:51:27.555Z,9.63
2018-09-12T20:53:56.874Z,9.90
2018-09-12T20:56:26.104Z,10.80
2018-09-12T20:58:55.520Z,9.60
2018-09-12T21:01:24.982Z,9.37
2018-09-12T21:03:53.948Z,9.47
2018-09-12T21:06:23.052Z,9.43
2018-09-12T21:08:52.292Z,9.93
2018-09-12T21:11:22.057Z,10.33
2018-09-12T21:13:52.562Z,9.07
2018-09-12T21:16:21.801Z,9.80
2018-09-12T21:18:50.728Z,9.97
2018-09-12T21:21:20.096Z,9.63
2018-09-12T21:23:49.248Z,9.77
2018-09-12T21:26:18.366Z,9.77
2018-09-12T21:28:47.856Z,10.40
2018-09-12T21:31:17.102Z,10.50
2018-09-12T21:33:46.221Z,9.33
2018-09-12T21:36:16.096Z,9.67
2018-09-12T21:38:45.360Z,9.47
2018-09-12T21:41:14.928Z,9.10
2018-09-12T21:43:44.140Z,9.20
2018-09-12T21:46:14.074Z,9.10
2018-09-12T21:48:43.115Z,9.13
2018-09-12T21:51:12.546Z,9.40
2018-09-12T21:53:41.622Z,9.10
2018-09-12T21:56:11.156Z,9.10
2018-09-12T21:58:42.113Z,9.13
2018-09-12T22:01:11.022Z,8.60
2018-09-12T22:03:39.998Z,8.63
2018-09-12T22:06:09.409Z,8.77
2018-09-12T22:08:38.477Z,16.30
2018-09-12T22:11:07.575Z,11.07
2018-09-12T22:13:36.754Z,11.27
2018-09-12T22:16:05.799Z,9.13
2018-09-12T22:18:34.855Z,9.23
2018-09-12T22:21:04.043Z,9.23
2018-09-12T22:23:33.048Z,8.53
2018-09-12T22:26:02.207Z,9.47
2018-09-12T22:28:31.263Z,8.87
2018-09-12T22:31:00.410Z,8.70
2018-09-12T22:33:29.455Z,9.10
2018-09-12T22:35:58.685Z,9.10
2018-09-12T22:38:27.600Z,8.80
2018-09-12T22:40:56.716Z,9.13
2018-09-12T22:43:25.662Z,9.17
2018-09-12T22:45:54.681Z,9.00
2018-09-12T22:48:23.722Z,9.10
2018-09-12T22:50:52.918Z,8.57
2018-09-12T22:53:21.862Z,8.17
2018-09-12T22:55:50.814Z,8.60
2018-09-12T22:58:19.747Z,8.20
2018-09-12T23:00:48.758Z,9.27
2018-09-12T23:03:17.741Z,9.33
2018-09-12T23:05:47.040Z,8.83
2018-09-12T23:08:16.035Z,9.13
2018-09-12T23:10:44.900Z,8.90
2018-09-12T23:13:14.872Z,9.23
2018-09-12T23:15:43.826Z,9.63
2018-09-12T23:18:12.947Z,9.43
2018-09-12T23:20:42.321Z,9.77
2018-09-12T23:23:11.181Z,9.67
2018-09-12T23:25:40.149Z,9.80
2018-09-12T23:28:09.397Z,10.03
2018-09-12T23:30:38.414Z,9.73
2018-09-12T23:33:07.469Z,8.97
2018-09-12T23:35:36.704Z,9.60
2018-09-12T23:38:05.786Z,8.63
2018-09-12T23:40:34.822Z,9.20
2018-09-12T23:43:03.721Z,8.57
2018-09-12T23:45:32.623Z,8.90
2018-09-12T23:48:01.573Z,8.70
2018-09-12T23:50:31.803Z,9.13
2018-09-12T23:53:00.676Z,8.43
2018-09-12T23:55:29.674Z,9.27
2018-09-12T23:57:58.911Z,8.43
